Stolt Spray — ZCSQ9 — position and weather

sailwx.info

Track history (hours):
 
Tides and Currents Weather Stations Pressure Air Temp Water Temp Dewpoint Dewpoint Depression Visibility Wind Speed Wind Dir Waves Ship Positions

Stolt Spray

Last reported at 2018-Jan-03 22:38 UTC. Time now 2018-Feb-21 05:54 UTC.
Position N 36°09' E 014°40'.
Warning: this ship's position is 48 days out of date.

Length 163 m; draft 9.2 m.

Type: Ship (hazmat cat B). MMSI: 319591000.

Date/timePositionNaut miles runAvg speedWind from/ knotsBaromVisibWave heightAir tempDewpointWater temp
2018-Jan-03 22:38N 36°09' E 014°40'213.9
2018-Jan-03 22:30N 36°10' E 014°38'713.8
2018-Jan-03 22:00N 36°12' E 014°30'714.2
2018-Jan-03 21:30N 36°14' E 014°21'714.0
2018-Jan-03 21:00N 36°15' E 014°13'714.0
2018-Jan-03 20:30N 36°18' E 014°05'714.0
2018-Jan-03 20:00N 36°20' E 013°56'714.1
2018-Jan-03 19:30N 36°22' E 013°48'9414.4
2018-Jan-03 13:01N 37°01' E 012°02'015.3
2018-Jan-03 12:59N 37°01' E 012°01'715.2
2018-Jan-03 12:30N 37°05' E 011°53'815.1
2018-Jan-03 12:00N 37°08' E 011°45'815.1
2018-Jan-03 11:30N 37°12' E 011°37'714.4
2018-Jan-03 11:00N 37°15' E 011°28'  
2018-Jan-01 05:53N 36°01' W 005°10'616.5
2018-Jan-01 05:30N 36°00' W 005°18'918.9
2018-Jan-01 05:00N 35°58' W 005°29'27512.5
2017-Dec-31 07:04N 38°38' W 010°10'413.6
2017-Dec-31 06:45N 38°42' W 010°11'313.5
2017-Dec-31 06:30N 38°45' W 010°11'1014.0
2017-Dec-31 05:49N 38°55' W 010°11'414.1
2017-Dec-31 05:30N 38°59' W 010°11'714.1
2017-Dec-31 05:00N 39°06' W 010°11'714.3
2017-Dec-31 04:30N 39°14' W 010°11'814.1
2017-Dec-31 03:57N 39°22' W 010°11'  
2017-Dec-28 17:11N 49°47' W 003°26'312.1
2017-Dec-28 16:58N 49°49' W 003°23'511.9
2017-Dec-28 16:30N 49°51' W 003°15'611.7
2017-Dec-28 15:58N 49°54' W 003°07'511.5
2017-Dec-28 15:30N 49°57' W 003°00'611.1
2017-Dec-28 15:00N 49°59' W 002°52'9712.7
2017-Dec-28 07:23N 50°25' W 000°26'513.0
2017-Dec-28 06:59N 50°26' W 000°18'612.7
2017-Dec-28 06:30N 50°28' W 000°09'612.3
2017-Dec-28 06:00N 50°30' E 000°00'612.1
2017-Dec-28 05:30N 50°31' E 000°09'611.8
2017-Dec-28 05:00N 50°33' E 000°18'611.7
2017-Dec-28 04:30N 50°34' E 000°27'611.4
2017-Dec-28 04:00N 50°36' E 000°36'611.9
2017-Dec-28 03:30N 50°40' E 000°43'612.1
2017-Dec-28 03:00N 50°44' E 000°50'812.9
2017-Dec-28 02:21N 50°49' E 001°01'513.3
2017-Dec-28 02:00N 50°52' E 001°06'713.6
2017-Dec-28 01:30N 50°57' E 001°14'713.5
2017-Dec-28 01:00N 51°02' E 001°21'4 7.4
2017-Dec-28 00:30N 51°05' E 001°23'611.2
2017-Dec-28 00:01N 51°06' E 001°31'815.1
2017-Dec-27 23:31N 51°11' E 001°41'714.9
2017-Dec-27 23:00N 51°17' E 001°48'714.0
2017-Dec-27 22:31N 51°22' E 001°55'611.8
2017-Dec-27 22:00N 51°24' E 002°04'612.4
2017-Dec-27 21:30N 51°22' E 002°13'611.3
2017-Dec-27 21:00N 51°21' E 002°22'811.9
2017-Dec-27 20:22N 51°23' E 002°34'1011.0
2017-Dec-27 19:26N 51°25' E 002°50'4 9.2
2017-Dec-27 19:00N 51°25' E 002°56'5 9.2
2017-Dec-27 18:31N 51°25' E 003°03'510.3
2017-Dec-27 18:01N 51°24' E 003°11'510.2
2017-Dec-27 17:31N 51°24' E 003°20'510.5
2017-Dec-27 17:00N 51°25' E 003°28'611.0
2017-Dec-27 16:27N 51°26' E 003°38'2 0.0
2017-Dec-25 13:13N 51°27' E 003°40'0 1.1
2017-Dec-25 13:00N 51°27' E 003°40'5 9.3
2017-Dec-25 12:30N 51°23' E 003°44'713.3
2017-Dec-25 12:00N 51°22' E 003°54'611.1
2017-Dec-25 11:28N 51°25' E 004°02'511.5
2017-Dec-25 11:01N 51°23' E 004°10'611.2
2017-Dec-25 10:30N 51°19' E 004°16'4 7.0
2017-Dec-25 10:00N 51°17' E 004°20'0 0.0
2017-Dec-25 09:30N 51°17' E 004°20'1 2.0
2017-Dec-25 09:00N 51°16' E 004°21'1 2.3
2017-Dec-25 08:30N 51°15' E 004°23'0 0.0
2017-Dec-25 08:00N 51°15' E 004°23'0 0.0
2017-Dec-25 07:27N 51°15' E 004°23'0 0.0
2017-Dec-25 07:00N 51°15' E 004°23'0 0.0
2017-Dec-25 06:30N 51°15' E 004°23'0 0.0
2017-Dec-25 05:57N 51°15' E 004°23'0 0.0
2017-Dec-25 05:30N 51°15' E 004°23'0 0.0
2017-Dec-25 05:00N 51°15' E 004°23'0 0.0
2017-Dec-25 04:27N 51°15' E 004°23'0 0.0
2017-Dec-25 04:00N 51°15' E 004°23'0 0.0
2017-Dec-25 03:27N 51°15' E 004°23'0 0.0
2017-Dec-25 03:00N 51°15' E 004°23'0 0.0
2017-Dec-25 02:27N 51°15' E 004°23'0 0.0
2017-Dec-25 01:57N 51°15' E 004°23'0 0.0
2017-Dec-25 01:30N 51°15' E 004°23'0 0.0
2017-Dec-25 01:00N 51°15' E 004°23'0 0.0
2017-Dec-25 00:24N 51°15' E 004°23'0 0.0
2017-Dec-25 00:00N 51°15' E 004°23'0 0.0
2017-Dec-24 23:30N 51°15' E 004°23'0 0.0
2017-Dec-24 22:57N 51°15' E 004°23'  
Track history (hours):
 
Tides and Currents Weather Stations Pressure Air Temp Water Temp Dewpoint Dewpoint Depression Visibility Wind Speed Wind Dir Waves Ship Positions

Stolt Spray

Last reported at 2018-Jan-03 22:38 UTC. Time now 2018-Feb-21 05:54 UTC.
Position N 36°09' E 014°40'.
Warning: this ship's position is 48 days out of date.

Length 163 m; draft 9.2 m.

Type: Ship (hazmat cat B). MMSI: 319591000.

Date/timePositionNaut miles runAvg speedWind from/ knotsBaromVisibWave heightAir tempDewpointWater temp
2018-Jan-03 22:38N 36°09' E 014°40'213.9
2018-Jan-03 22:30N 36°10' E 014°38'713.8
2018-Jan-03 22:00N 36°12' E 014°30'714.2
2018-Jan-03 21:30N 36°14' E 014°21'714.0
2018-Jan-03 21:00N 36°15' E 014°13'714.0
2018-Jan-03 20:30N 36°18' E 014°05'714.0
2018-Jan-03 20:00N 36°20' E 013°56'714.1
2018-Jan-03 19:30N 36°22' E 013°48'9414.4
2018-Jan-03 13:01N 37°01' E 012°02'015.3
2018-Jan-03 12:59N 37°01' E 012°01'715.2
2018-Jan-03 12:30N 37°05' E 011°53'815.1
2018-Jan-03 12:00N 37°08' E 011°45'815.1
2018-Jan-03 11:30N 37°12' E 011°37'714.4
2018-Jan-03 11:00N 37°15' E 011°28'  
2018-Jan-01 05:53N 36°01' W 005°10'616.5
2018-Jan-01 05:30N 36°00' W 005°18'918.9
2018-Jan-01 05:00N 35°58' W 005°29'27512.5
2017-Dec-31 07:04N 38°38' W 010°10'413.6
2017-Dec-31 06:45N 38°42' W 010°11'313.5
2017-Dec-31 06:30N 38°45' W 010°11'1014.0
2017-Dec-31 05:49N 38°55' W 010°11'414.1
2017-Dec-31 05:30N 38°59' W 010°11'714.1
2017-Dec-31 05:00N 39°06' W 010°11'714.3
2017-Dec-31 04:30N 39°14' W 010°11'814.1
2017-Dec-31 03:57N 39°22' W 010°11'  
2017-Dec-28 17:11N 49°47' W 003°26'312.1
2017-Dec-28 16:58N 49°49' W 003°23'511.9
2017-Dec-28 16:30N 49°51' W 003°15'611.7
2017-Dec-28 15:58N 49°54' W 003°07'511.5
2017-Dec-28 15:30N 49°57' W 003°00'611.1
2017-Dec-28 15:00N 49°59' W 002°52'9712.7
2017-Dec-28 07:23N 50°25' W 000°26'513.0
2017-Dec-28 06:59N 50°26' W 000°18'612.7
2017-Dec-28 06:30N 50°28' W 000°09'612.3
2017-Dec-28 06:00N 50°30' E 000°00'612.1
2017-Dec-28 05:30N 50°31' E 000°09'611.8
2017-Dec-28 05:00N 50°33' E 000°18'611.7
2017-Dec-28 04:30N 50°34' E 000°27'611.4
2017-Dec-28 04:00N 50°36' E 000°36'611.9
2017-Dec-28 03:30N 50°40' E 000°43'612.1
2017-Dec-28 03:00N 50°44' E 000°50'812.9
2017-Dec-28 02:21N 50°49' E 001°01'513.3
2017-Dec-28 02:00N 50°52' E 001°06'713.6
2017-Dec-28 01:30N 50°57' E 001°14'713.5
2017-Dec-28 01:00N 51°02' E 001°21'4 7.4
2017-Dec-28 00:30N 51°05' E 001°23'611.2
2017-Dec-28 00:01N 51°06' E 001°31'815.1
2017-Dec-27 23:31N 51°11' E 001°41'714.9
2017-Dec-27 23:00N 51°17' E 001°48'714.0
2017-Dec-27 22:31N 51°22' E 001°55'611.8
2017-Dec-27 22:00N 51°24' E 002°04'612.4
2017-Dec-27 21:30N 51°22' E 002°13'611.3
2017-Dec-27 21:00N 51°21' E 002°22'811.9
2017-Dec-27 20:22N 51°23' E 002°34'1011.0
2017-Dec-27 19:26N 51°25' E 002°50'4 9.2
2017-Dec-27 19:00N 51°25' E 002°56'5 9.2
2017-Dec-27 18:31N 51°25' E 003°03'510.3
2017-Dec-27 18:01N 51°24' E 003°11'510.2
2017-Dec-27 17:31N 51°24' E 003°20'510.5
2017-Dec-27 17:00N 51°25' E 003°28'611.0
2017-Dec-27 16:27N 51°26' E 003°38'2 0.0
2017-Dec-25 13:13N 51°27' E 003°40'0 1.1
2017-Dec-25 13:00N 51°27' E 003°40'5 9.3
2017-Dec-25 12:30N 51°23' E 003°44'713.3
2017-Dec-25 12:00N 51°22' E 003°54'611.1
2017-Dec-25 11:28N 51°25' E 004°02'511.5
2017-Dec-25 11:01N 51°23' E 004°10'611.2
2017-Dec-25 10:30N 51°19' E 004°16'4 7.0
2017-Dec-25 10:00N 51°17' E 004°20'0 0.0
2017-Dec-25 09:30N 51°17' E 004°20'1 2.0
2017-Dec-25 09:00N 51°16' E 004°21'1 2.3
2017-Dec-25 08:30N 51°15' E 004°23'0 0.0
2017-Dec-25 08:00N 51°15' E 004°23'0 0.0
2017-Dec-25 07:27N 51°15' E 004°23'0 0.0
2017-Dec-25 07:00N 51°15' E 004°23'0 0.0
2017-Dec-25 06:30N 51°15' E 004°23'0 0.0
2017-Dec-25 05:57N 51°15' E 004°23'0 0.0
2017-Dec-25 05:30N 51°15' E 004°23'0 0.0
2017-Dec-25 05:00N 51°15' E 004°23'0 0.0
2017-Dec-25 04:27N 51°15' E 004°23'0 0.0
2017-Dec-25 04:00N 51°15' E 004°23'0 0.0
2017-Dec-25 03:27N 51°15' E 004°23'0 0.0
2017-Dec-25 03:00N 51°15' E 004°23'0 0.0
2017-Dec-25 02:27N 51°15' E 004°23'0 0.0
2017-Dec-25 01:57N 51°15' E 004°23'0 0.0
2017-Dec-25 01:30N 51°15' E 004°23'0 0.0
2017-Dec-25 01:00N 51°15' E 004°23'0 0.0
2017-Dec-25 00:24N 51°15' E 004°23'0 0.0
2017-Dec-25 00:00N 51°15' E 004°23'0 0.0
2017-Dec-24 23:30N 51°15' E 004°23'0 0.0
2017-Dec-24 22:57N 51°15' E 004°23'  

Dump ship's entire track history